createdAt,value
2019-05-12T00:02:07.571Z,8.93
2019-05-12T00:04:38.530Z,10.58
2019-05-12T00:07:08.894Z,11.12
2019-05-12T00:09:39.127Z,8.10
2019-05-12T00:12:09.333Z,8.00
2019-05-12T00:14:39.510Z,11.22
2019-05-12T00:17:09.700Z,7.62
2019-05-12T00:19:39.946Z,10.43
2019-05-12T00:22:11.486Z,7.33
2019-05-12T00:24:41.658Z,10.80
2019-05-12T00:27:22.730Z,11.63
2019-05-12T00:29:52.925Z,8.58
2019-05-12T00:32:23.180Z,11.12
2019-05-12T00:34:53.417Z,7.53
2019-05-12T00:37:23.801Z,6.77
2019-05-12T00:39:54.936Z,8.85
2019-05-12T00:42:25.445Z,7.95
2019-05-12T00:44:55.611Z,9.70
2019-05-12T00:47:27.945Z,8.83
2019-05-12T00:49:58.354Z,10.45
2019-05-12T00:52:28.642Z,6.17
2019-05-12T00:54:58.817Z,7.83
2019-05-12T00:57:28.995Z,8.85
2019-05-12T00:59:59.180Z,10.43
2019-05-12T01:02:29.543Z,11.40
2019-05-12T01:04:59.727Z,8.03
2019-05-12T01:10:01.417Z,6.03
2019-05-12T01:12:32.450Z,15.20
2019-05-12T01:15:02.691Z,12.23
2019-05-12T01:17:33.163Z,7.53
2019-05-12T01:20:04.608Z,6.08
2019-05-12T01:22:34.862Z,7.87
2019-05-12T01:25:08.367Z,9.80
2019-05-12T01:27:38.317Z,11.35
2019-05-12T01:30:09.062Z,9.00
2019-05-12T01:32:40.488Z,7.85
2019-05-12T01:35:10.693Z,6.75
2019-05-12T01:37:40.904Z,7.00
2019-05-12T01:40:11.163Z,7.40
2019-05-12T01:42:41.364Z,12.30
2019-05-12T01:45:11.571Z,9.70
2019-05-12T01:47:41.903Z,10.40
2019-05-12T01:50:12.370Z,12.73
2019-05-12T01:52:42.580Z,7.22
2019-05-12T01:55:12.750Z,10.53
2019-05-12T01:57:42.944Z,7.22
2019-05-12T02:00:13.183Z,8.53
2019-05-12T02:02:43.378Z,11.53
2019-05-12T02:05:13.609Z,8.33
2019-05-12T02:07:47.791Z,7.92
2019-05-12T02:10:17.953Z,10.00
2019-05-12T02:12:49.136Z,8.73
2019-05-12T02:15:19.836Z,5.00
2019-05-12T02:17:50.032Z,8.58
2019-05-12T02:20:20.330Z,4.58
2019-05-12T02:22:50.598Z,7.87
2019-05-12T02:25:20.768Z,8.20
2019-05-12T02:27:50.966Z,7.50
2019-05-12T02:30:21.164Z,9.63
2019-05-12T02:32:57.294Z,4.72
2019-05-12T02:35:24.708Z,5.85
2019-05-12T02:37:55.394Z,6.62
2019-05-12T02:40:25.782Z,8.47
2019-05-12T02:42:57.090Z,5.08
2019-05-12T02:45:27.296Z,8.28
2019-05-12T02:47:57.514Z,8.88
2019-05-12T02:50:34.891Z,6.17
2019-05-12T02:53:05.171Z,9.03
2019-05-12T02:55:37.433Z,6.47
2019-05-12T02:58:07.749Z,4.50
2019-05-12T03:00:38.497Z,6.33
2019-05-12T03:03:09.035Z,5.12
2019-05-12T03:05:40.098Z,6.30
2019-05-12T03:08:11.078Z,8.00
2019-05-12T03:10:44.800Z,7.42
2019-05-12T03:13:14.874Z,5.45
2019-05-12T03:15:45.469Z,6.80
2019-05-12T03:18:15.652Z,4.00
2019-05-12T03:20:45.920Z,5.37
2019-05-12T03:23:19.425Z,6.08
2019-05-12T03:25:48.024Z,4.75
2019-05-12T03:28:18.206Z,5.67
2019-05-12T03:30:49.488Z,4.12
2019-05-12T03:33:20.842Z,8.08
2019-05-12T03:35:54.930Z,7.25
2019-05-12T03:39:19.287Z,6.15
2019-05-12T03:41:49.623Z,5.92
2019-05-12T03:44:19.813Z,6.35
2019-05-12T03:46:50.105Z,5.25
2019-05-12T03:49:20.718Z,6.30
2019-05-12T03:51:54.206Z,4.85
2019-05-12T03:54:24.489Z,5.97
2019-05-12T03:56:55.725Z,4.37
2019-05-12T04:01:55.978Z,8.25
2019-05-12T04:04:26.156Z,6.30
2019-05-12T04:06:56.353Z,6.42
2019-05-12T04:09:26.536Z,4.50
2019-05-12T04:11:56.733Z,7.65
2019-05-12T04:14:26.917Z,8.85
2019-05-12T04:16:57.193Z,3.90
2019-05-12T04:19:27.440Z,4.80
2019-05-12T04:21:57.641Z,3.30
2019-05-12T04:24:27.887Z,6.40
2019-05-12T04:26:58.078Z,3.15
2019-05-12T04:29:28.259Z,4.78
2019-05-12T04:31:58.466Z,3.77
2019-05-12T04:34:28.752Z,2.85
2019-05-12T04:36:59.025Z,7.62
2019-05-12T04:39:29.223Z,4.00
2019-05-12T04:41:59.492Z,6.12
2019-05-12T04:44:29.811Z,3.72
2019-05-12T04:47:00.024Z,3.20
2019-05-12T04:49:30.379Z,5.23
2019-05-12T04:52:00.655Z,3.37
2019-05-12T04:54:30.851Z,5.30
2019-05-12T04:57:03.927Z,4.90
2019-05-12T04:59:34.458Z,3.47
2019-05-12T05:02:05.646Z,2.70
2019-05-12T05:04:36.198Z,1.70
2019-05-12T05:07:06.400Z,2.27
2019-05-12T05:09:36.579Z,2.98
2019-05-12T05:12:06.940Z,2.92
2019-05-12T05:14:37.136Z,4.05
2019-05-12T05:17:07.370Z,2.27
2019-05-12T05:19:37.619Z,5.65
2019-05-12T05:22:07.829Z,3.12
2019-05-12T05:24:38.012Z,6.53
2019-05-12T05:27:08.207Z,3.25
2019-05-12T05:29:38.467Z,2.27
2019-05-12T05:32:08.768Z,2.30
2019-05-12T05:34:38.983Z,7.80
2019-05-12T05:37:09.207Z,4.90
2019-05-12T05:39:47.988Z,5.55
2019-05-12T05:42:13.372Z,3.67
2019-05-12T05:44:43.543Z,1.90
2019-05-12T05:47:13.952Z,3.95
2019-05-12T05:49:44.319Z,5.55
2019-05-12T05:52:14.523Z,3.67
2019-05-12T05:54:44.832Z,5.10
2019-05-12T05:57:15.036Z,3.50
2019-05-12T05:59:45.366Z,2.80
2019-05-12T06:02:15.569Z,4.33
2019-05-12T06:04:49.770Z,2.92
2019-05-12T06:07:17.647Z,2.02
2019-05-12T06:09:47.831Z,3.40
2019-05-12T06:12:18.128Z,2.77
2019-05-12T06:14:54.456Z,2.92
2019-05-12T06:17:20.202Z,2.58
2019-05-12T06:19:50.397Z,1.12
2019-05-12T06:24:56.886Z,3.60
2019-05-12T06:27:25.027Z,5.83
2019-05-12T06:30:00.815Z,2.90
2019-05-12T06:32:27.135Z,3.30
2019-05-12T06:35:01.545Z,2.52
2019-05-12T06:37:29.280Z,1.47
2019-05-12T06:40:00.577Z,2.98
2019-05-12T06:42:31.478Z,1.55
2019-05-12T06:45:03.677Z,2.17
2019-05-12T06:47:34.390Z,3.00
2019-05-12T06:50:05.763Z,1.67
2019-05-12T06:52:38.646Z,2.15
2019-05-12T06:55:07.854Z,2.05
2019-05-12T06:57:39.978Z,3.92
2019-05-12T07:00:09.992Z,5.65
2019-05-12T07:02:49.024Z,3.90
2019-05-12T07:05:14.437Z,3.02
2019-05-12T07:07:46.103Z,6.40
2019-05-12T07:10:35.473Z,3.85
2019-05-12T07:13:00.703Z,6.53
2019-05-12T07:15:19.963Z,3.20
2019-05-12T07:17:55.689Z,3.58
2019-05-12T07:20:24.108Z,3.05
2019-05-12T07:22:54.795Z,4.45
2019-05-12T07:25:30.981Z,2.47
2019-05-12T07:28:00.786Z,2.90
2019-05-12T07:30:35.008Z,4.30
2019-05-12T07:33:04.904Z,2.70
2019-05-12T07:35:35.230Z,3.33
2019-05-12T07:38:05.429Z,4.83
2019-05-12T07:40:37.945Z,2.85
2019-05-12T07:43:09.768Z,2.17
2019-05-12T07:45:39.523Z,2.87
2019-05-12T07:48:10.502Z,2.27
2019-05-12T07:50:43.183Z,2.87
2019-05-12T07:53:14.475Z,1.85
2019-05-12T07:55:49.372Z,2.12
2019-05-12T07:58:19.167Z,2.30
2019-05-12T08:00:53.843Z,3.65
2019-05-12T08:03:21.518Z,2.00
2019-05-12T08:05:57.477Z,2.75
2019-05-12T08:08:25.870Z,2.20
2019-05-12T08:10:56.200Z,2.17
2019-05-12T08:13:31.099Z,1.85
2019-05-12T08:15:59.538Z,1.75
2019-05-12T08:18:30.689Z,1.50
2019-05-12T08:21:03.733Z,1.00
2019-05-12T08:23:37.449Z,1.75
2019-05-12T08:26:12.168Z,5.45
2019-05-12T08:28:40.365Z,1.17
2019-05-12T08:31:10.224Z,2.02
2019-05-12T08:33:40.475Z,3.90
2019-05-12T08:38:44.401Z,3.20
2019-05-12T08:41:14.831Z,2.12
2019-05-12T08:43:53.015Z,3.40
2019-05-12T08:46:18.331Z,2.12
2019-05-12T08:48:51.643Z,3.35
2019-05-12T08:51:20.594Z,2.33
2019-05-12T08:53:53.967Z,1.65
2019-05-12T08:56:25.925Z,3.10
2019-05-12T08:58:54.784Z,4.80
2019-05-12T09:01:26.510Z,4.47
2019-05-12T09:04:00.386Z,2.83
2019-05-12T09:06:28.775Z,1.77
2019-05-12T09:08:58.949Z,3.05
2019-05-12T09:11:46.088Z,1.85
2019-05-12T09:14:16.355Z,2.72
2019-05-12T09:16:46.550Z,2.50
2019-05-12T09:19:23.749Z,2.75
2019-05-12T09:21:48.631Z,2.15
2019-05-12T09:24:25.370Z,4.67
2019-05-12T09:26:53.792Z,2.17
2019-05-12T09:29:25.275Z,2.47
2019-05-12T09:31:59.367Z,1.52
2019-05-12T09:34:27.712Z,0.95
2019-05-12T09:36:59.466Z,1.32
2019-05-12T09:39:36.421Z,1.75
2019-05-12T09:42:03.797Z,1.37
2019-05-12T09:44:34.267Z,0.70
2019-05-12T09:47:07.440Z,3.45
2019-05-12T09:49:39.472Z,0.50
2019-05-12T09:52:13.105Z,2.10
2019-05-12T09:54:53.472Z,1.42
2019-05-12T09:57:23.913Z,0.68
2019-05-12T09:59:58.001Z,2.53
2019-05-12T10:02:26.111Z,1.72
2019-05-12T10:05:00.710Z,1.20
2019-05-12T10:07:29.146Z,5.05
2019-05-12T10:09:59.334Z,2.02
2019-05-12T10:12:30.055Z,4.12
2019-05-12T10:15:00.484Z,2.67
2019-05-12T10:17:30.758Z,1.67
2019-05-12T10:20:01.918Z,0.98
2019-05-12T10:22:39.736Z,1.37
2019-05-12T10:25:09.511Z,1.75
2019-05-12T10:27:39.727Z,2.55
2019-05-12T10:30:12.727Z,0.50
2019-05-12T10:32:43.600Z,2.52
2019-05-12T10:35:21.180Z,0.80
2019-05-12T10:37:47.493Z,1.75
2019-05-12T10:40:17.751Z,1.30
2019-05-12T10:42:49.474Z,2.27
2019-05-12T10:45:23.511Z,1.77
2019-05-12T10:47:53.611Z,0.70
2019-05-12T10:50:24.030Z,4.43
2019-05-12T10:52:54.419Z,0.62
2019-05-12T10:55:24.769Z,1.35
2019-05-12T10:58:01.419Z,2.12
2019-05-12T11:00:28.005Z,2.02
2019-05-12T11:03:01.493Z,2.02
2019-05-12T11:05:30.148Z,1.02
2019-05-12T11:08:05.622Z,1.42
2019-05-12T11:10:32.512Z,2.67
2019-05-12T11:13:08.472Z,1.87
2019-05-12T11:15:39.438Z,1.52
2019-05-12T11:18:08.596Z,0.90
2019-05-12T11:20:38.795Z,0.80
2019-05-12T11:23:08.995Z,2.17
2019-05-12T11:25:39.235Z,0.55
2019-05-12T11:28:09.514Z,1.00
2019-05-12T11:30:39.696Z,0.78
2019-05-12T11:33:09.894Z,2.10
2019-05-12T11:35:40.072Z,1.98
2019-05-12T11:38:10.266Z,1.65
2019-05-12T11:40:40.703Z,1.20
2019-05-12T11:43:10.916Z,2.43
2019-05-12T11:45:41.157Z,1.22
2019-05-12T11:48:11.373Z,2.47
2019-05-12T11:50:47.813Z,2.00
2019-05-12T11:53:13.894Z,1.70
2019-05-12T11:55:44.162Z,3.77
2019-05-12T11:58:14.363Z,1.95
2019-05-12T12:00:46.170Z,3.60
2019-05-12T12:03:18.211Z,2.12
2019-05-12T12:05:48.250Z,1.67
2019-05-12T12:08:18.510Z,1.25
2019-05-12T12:10:49.269Z,2.00
2019-05-12T12:13:25.500Z,2.85
2019-05-12T12:15:51.742Z,3.22
2019-05-12T12:18:23.505Z,2.45
2019-05-12T12:21:02.848Z,0.80
2019-05-12T12:23:26.090Z,3.83
2019-05-12T12:25:56.357Z,3.50
2019-05-12T12:28:26.638Z,2.33
2019-05-12T12:31:01.150Z,2.20
2019-05-12T12:33:30.900Z,3.50
2019-05-12T12:36:00.980Z,2.05
2019-05-12T12:38:33.131Z,3.58
2019-05-12T12:41:03.873Z,1.02
2019-05-12T12:43:35.391Z,2.10
2019-05-12T12:46:10.617Z,2.27
2019-05-12T12:48:39.194Z,1.12
2019-05-12T12:51:09.442Z,2.92
2019-05-12T12:53:39.651Z,2.75
2019-05-12T12:56:09.835Z,3.12
2019-05-12T12:58:41.311Z,4.37
2019-05-12T13:01:14.119Z,1.37
2019-05-12T13:03:43.549Z,1.25
2019-05-12T13:06:16.914Z,1.03
2019-05-12T13:08:45.691Z,2.22
2019-05-12T13:11:16.074Z,2.80
2019-05-12T13:13:46.387Z,1.73
2019-05-12T13:16:16.573Z,2.55
2019-05-12T13:18:46.784Z,2.22
2019-05-12T13:21:17.082Z,2.98
2019-05-12T13:23:47.335Z,1.30
2019-05-12T13:26:20.163Z,2.10
2019-05-12T13:28:53.232Z,3.80
2019-05-12T13:31:24.321Z,2.60
2019-05-12T13:33:55.204Z,1.25
2019-05-12T13:36:29.552Z,2.30
2019-05-12T13:38:58.999Z,1.32
2019-05-12T13:41:29.186Z,1.42
2019-05-12T13:44:00.078Z,3.58
2019-05-12T13:46:30.369Z,2.62
2019-05-12T13:49:00.583Z,2.33
2019-05-12T13:51:30.804Z,1.62
2019-05-12T13:54:01.108Z,2.35
2019-05-12T13:56:35.216Z,1.60
2019-05-12T13:59:05.199Z,1.90
2019-05-12T14:01:40.269Z,2.25
2019-05-12T14:04:07.303Z,1.45
2019-05-12T14:06:38.126Z,2.17
2019-05-12T14:09:09.700Z,2.22
2019-05-12T14:11:39.982Z,2.42
2019-05-12T14:14:14.921Z,1.90
2019-05-12T14:16:45.578Z,3.98
2019-05-12T14:19:14.363Z,2.65
2019-05-12T14:21:44.956Z,2.92
2019-05-12T14:24:15.217Z,3.25
2019-05-12T14:26:49.359Z,3.93
2019-05-12T14:29:20.437Z,3.95
2019-05-12T14:31:54.511Z,1.57
2019-05-12T14:34:23.471Z,2.02
2019-05-12T14:37:04.996Z,1.92
2019-05-12T14:39:25.115Z,1.50
2019-05-12T14:41:55.451Z,3.05
2019-05-12T14:44:25.679Z,1.07
2019-05-12T14:46:57.126Z,1.90
2019-05-12T14:49:30.538Z,0.40
2019-05-12T14:51:59.614Z,1.82
2019-05-12T14:54:29.798Z,1.65
2019-05-12T14:57:00.014Z,0.50
2019-05-12T14:59:35.416Z,1.05
2019-05-12T15:02:05.937Z,2.35
2019-05-12T15:04:34.435Z,2.20
2019-05-12T15:07:08.069Z,1.52
2019-05-12T15:09:36.504Z,1.20
2019-05-12T15:12:06.720Z,2.45
2019-05-12T15:14:38.105Z,2.55
2019-05-12T15:17:13.857Z,3.58
2019-05-12T15:19:40.516Z,0.47
2019-05-12T15:22:12.449Z,1.50
2019-05-12T15:24:44.112Z,2.75
2019-05-12T15:27:16.042Z,1.50
2019-05-12T15:29:50.010Z,3.67
2019-05-12T15:32:18.205Z,3.08
2019-05-12T15:34:48.512Z,6.20
2019-05-12T15:37:18.964Z,1.90
2019-05-12T15:39:49.134Z,3.22
2019-05-12T15:42:19.360Z,4.75
2019-05-12T15:47:19.955Z,2.35
2019-05-12T15:49:50.218Z,1.90
2019-05-12T15:52:20.419Z,2.58
2019-05-12T15:54:51.365Z,2.00
2019-05-12T15:57:24.506Z,3.33
2019-05-12T15:59:54.486Z,1.22
2019-05-12T16:02:24.720Z,1.85
2019-05-12T16:04:55.089Z,2.62
2019-05-12T16:07:29.460Z,2.22
2019-05-12T16:09:57.471Z,1.72
2019-05-12T16:12:27.699Z,1.70
2019-05-12T16:14:57.878Z,1.60
2019-05-12T16:17:28.074Z,1.80
2019-05-12T16:19:58.247Z,1.37
2019-05-12T16:22:30.612Z,1.25
2019-05-12T16:25:04.146Z,1.05
2019-05-12T16:27:37.196Z,3.80
2019-05-12T16:30:06.579Z,2.27
2019-05-12T16:32:43.171Z,1.70
2019-05-12T16:35:08.658Z,2.22
2019-05-12T16:40:09.395Z,3.98
2019-05-12T16:42:40.773Z,2.22
2019-05-12T16:45:13.935Z,2.17
2019-05-12T16:47:44.741Z,2.35
2019-05-12T16:50:24.013Z,3.35
2019-05-12T16:52:47.271Z,2.33
2019-05-12T16:55:17.467Z,2.50
2019-05-12T16:57:52.843Z,2.37
2019-05-12T17:00:19.639Z,0.98
2019-05-12T17:02:53.806Z,2.30
2019-05-12T17:05:23.869Z,5.22
2019-05-12T17:07:55.749Z,2.00
2019-05-12T17:10:25.752Z,5.15
2019-05-12T17:12:57.314Z,1.00
2019-05-12T17:15:27.502Z,2.60
2019-05-12T17:18:01.504Z,1.17
2019-05-12T17:20:29.595Z,3.85
2019-05-12T17:23:00.366Z,1.40
2019-05-12T17:25:34.249Z,5.05
2019-05-12T17:28:05.759Z,4.47
2019-05-12T17:30:36.066Z,2.62
2019-05-12T17:33:06.250Z,3.20
2019-05-12T17:35:36.499Z,2.83
2019-05-12T17:38:11.717Z,3.08
2019-05-12T17:40:38.663Z,1.32
2019-05-12T17:43:11.838Z,1.30
2019-05-12T17:45:41.227Z,1.02
2019-05-12T17:48:14.039Z,2.15
2019-05-12T17:50:46.566Z,1.82
2019-05-12T17:53:17.784Z,4.45
2019-05-12T17:55:50.929Z,3.00
2019-05-12T17:58:19.623Z,4.90
2019-05-12T18:00:51.862Z,2.10
2019-05-12T18:03:24.662Z,4.17
2019-05-12T18:05:54.971Z,2.17
2019-05-12T18:08:32.512Z,3.12
2019-05-12T18:10:57.049Z,3.55
2019-05-12T18:13:28.160Z,3.27
2019-05-12T18:15:58.872Z,4.62
2019-05-12T18:18:32.600Z,4.10
2019-05-12T18:21:03.398Z,2.08
2019-05-12T18:23:34.379Z,3.25
2019-05-12T18:26:11.472Z,2.60
2019-05-12T18:28:55.270Z,2.77
2019-05-12T18:31:25.648Z,3.40
2019-05-12T18:33:57.064Z,2.72
2019-05-12T18:36:27.658Z,4.50
2019-05-12T18:39:09.233Z,2.72
2019-05-12T18:41:29.749Z,3.90
2019-05-12T18:43:59.920Z,4.67
2019-05-12T18:46:30.132Z,3.08
2019-05-12T18:49:03.609Z,3.42
2019-05-12T18:51:34.294Z,6.10
2019-05-12T18:54:10.209Z,3.72
2019-05-12T18:56:36.347Z,4.17
2019-05-12T18:59:11.634Z,3.80
2019-05-12T19:01:38.523Z,2.67
2019-05-12T19:04:08.695Z,1.62
2019-05-12T19:06:38.908Z,3.65
2019-05-12T19:09:09.404Z,3.25
2019-05-12T19:11:42.163Z,4.30
2019-05-12T19:14:13.451Z,5.42
2019-05-12T19:16:43.772Z,9.68
2019-05-12T19:19:18.362Z,2.80
2019-05-12T19:21:46.801Z,6.40
2019-05-12T19:24:19.862Z,9.63
2019-05-12T19:26:49.531Z,5.55
2019-05-12T19:29:19.714Z,4.42
2019-05-12T19:31:52.986Z,8.03
2019-05-12T19:34:25.238Z,4.35
2019-05-12T19:36:53.691Z,3.90
2019-05-12T19:39:25.469Z,5.62
2019-05-12T19:41:55.947Z,2.98
2019-05-12T19:44:45.287Z,4.40
2019-05-12T19:47:15.507Z,5.53
2019-05-12T19:49:50.383Z,5.25
2019-05-12T19:52:17.647Z,3.75
2019-05-12T19:54:47.848Z,4.40
2019-05-12T19:57:21.774Z,6.78
2019-05-12T20:00:44.637Z,3.27
2019-05-12T20:03:14.850Z,9.18
2019-05-12T20:05:45.033Z,5.17
2019-05-12T20:08:15.468Z,4.70
2019-05-12T20:10:49.388Z,2.50
2019-05-12T20:13:18.883Z,3.15
2019-05-12T20:15:49.086Z,5.17
2019-05-12T20:18:19.288Z,5.00
2019-05-12T20:20:49.468Z,4.45
2019-05-12T20:23:19.685Z,3.55
2019-05-12T20:25:49.864Z,5.47
2019-05-12T20:28:20.143Z,5.95
2019-05-12T20:30:54.364Z,9.18
2019-05-12T20:33:24.045Z,5.55
2019-05-12T20:35:54.729Z,6.78
2019-05-12T20:38:33.722Z,6.65
2019-05-12T20:40:57.191Z,4.65
2019-05-12T20:43:32.180Z,7.40
2019-05-12T20:45:59.844Z,7.50
2019-05-12T20:48:31.277Z,11.70
2019-05-12T20:51:03.530Z,15.70
2019-05-12T20:53:36.457Z,16.60
2019-05-12T20:56:05.491Z,14.35
2019-05-12T20:58:43.017Z,13.72
2019-05-12T21:01:30.106Z,8.23
2019-05-12T21:03:57.507Z,8.08
2019-05-12T21:06:33.126Z,4.05
2019-05-12T21:08:59.583Z,8.25
2019-05-12T21:11:29.759Z,5.15
2019-05-12T21:14:00.911Z,4.35
2019-05-12T21:16:38.003Z,6.62
2019-05-12T21:19:10.575Z,5.45
2019-05-12T21:21:38.337Z,3.85
2019-05-12T21:24:07.635Z,6.65
2019-05-12T21:26:38.111Z,4.17
2019-05-12T21:29:08.369Z,4.17
2019-05-12T21:31:38.736Z,5.22
2019-05-12T21:34:15.094Z,4.67
2019-05-12T21:36:43.872Z,4.95
2019-05-12T21:39:14.062Z,7.15
2019-05-12T21:41:50.553Z,9.35
2019-05-12T21:44:16.331Z,7.03
2019-05-12T21:46:57.265Z,9.33
2019-05-12T21:49:18.420Z,9.18
2019-05-12T21:51:50.581Z,6.50
2019-05-12T21:54:20.533Z,7.10
2019-05-12T21:56:50.847Z,6.40
2019-05-12T21:59:23.234Z,7.65
2019-05-12T22:01:53.373Z,12.25
2019-05-12T22:04:23.766Z,9.63
2019-05-12T22:06:57.112Z,7.65
2019-05-12T22:09:34.883Z,13.38
2019-05-12T22:11:59.416Z,7.87
2019-05-12T22:14:30.440Z,7.20
2019-05-12T22:20:57.989Z,8.55
2019-05-12T22:23:19.608Z,9.33
2019-05-12T22:25:55.677Z,3.47
2019-05-12T22:28:23.803Z,8.08
2019-05-12T22:30:54.124Z,4.83
2019-05-12T22:33:24.514Z,6.78
2019-05-12T22:36:05.055Z,3.95
2019-05-12T22:38:26.707Z,7.35
2019-05-12T22:40:59.517Z,6.72
2019-05-12T22:43:31.552Z,8.03
2019-05-12T22:46:00.655Z,5.10
2019-05-12T22:48:37.342Z,7.62
2019-05-12T22:51:06.141Z,5.25
2019-05-12T22:53:34.740Z,3.83
2019-05-12T22:56:12.335Z,7.28
2019-05-12T22:58:36.834Z,8.90
2019-05-12T23:01:07.024Z,4.87
2019-05-12T23:03:37.242Z,5.15
2019-05-12T23:06:20.315Z,6.85
2019-05-12T23:08:45.076Z,6.67
2019-05-12T23:11:11.220Z,4.35
2019-05-12T23:13:42.805Z,6.62
2019-05-12T23:16:14.150Z,5.03
2019-05-12T23:21:17.496Z,4.58
2019-05-12T23:23:50.000Z,4.95
2019-05-12T23:26:18.346Z,5.70
2019-05-12T23:28:50.354Z,10.85
2019-05-12T23:31:26.137Z,6.80
2019-05-12T23:33:54.348Z,7.83
2019-05-12T23:36:35.706Z,3.60
2019-05-12T23:39:00.603Z,8.38
2019-05-12T23:41:28.109Z,11.08
2019-05-12T23:43:58.572Z,8.03
2019-05-12T23:46:28.760Z,7.92
2019-05-12T23:48:59.012Z,6.40
2019-05-12T23:51:29.322Z,7.55
2019-05-12T23:53:59.652Z,10.00
2019-05-12T23:56:29.854Z,9.55
2019-05-12T23:59:00.055Z,9.80
